| time (UTC) | temp F | wind direction | speed knots | gust knots | rain 1hr in | rain 24hr in | rain mn in | humidity % | barometer mb |
| 20260504100516 | 46 | 215 | 0.0 | 0.0 | 0.00 | 0.00 | 0.00 | 76 | 1004.3 |
| 20260504081909 | 49 | 215 | 0.0 | 0.0 | 0.00 | 0.00 | 0.00 | 74 | 1004.4 |
| 20260504081406 | 49 | 215 | 0.0 | 0.0 | 0.00 | 0.00 | 0.00 | 72 | 1004.1 |
| 20260504080902 | 50 | 215 | 0.0 | 0.0 | 0.00 | 0.00 | 0.00 | 71 | 1004.5 |
| 20260504080359 | 50 | 215 | 0.0 | 0.0 | 0.00 | 0.00 | 0.00 | 71 | 1004.3 |
| 20260504070327 | 54 | 215 | 0.0 | 1.7 | 0.00 | 0.00 | 0.00 | 62 | 1005.3 |
| 20260504060247 | 54 | 214 | 0.0 | 1.7 | 0.00 | 0.00 | 0.00 | 63 | 1006.0 |
| 20260504050715 | 56 | 202 | 0.0 | 2.6 | 0.00 | 0.00 | 0.00 | 61 | 1006.1 |
| 20260504050212 | 57 | 199 | 2.6 | 3.5 | 0.00 | 0.00 | 0.00 | 60 | 1006.1 |
| 20260504045709 | 57 | 210 | 3.5 | 8.7 | 0.00 | 0.00 | 0.00 | 59 | 1006.1 |
| 20260504045209 | 57 | 206 | 1.7 | 5.2 | 0.00 | 0.00 | 0.00 | 59 | 1006.0 |
| 20260504044708 | 57 | 207 | 2.6 | 2.6 | 0.00 | 0.00 | 0.00 | 59 | 1006.0 |
| 20260504044204 | 57 | 210 | 1.7 | 3.5 | 0.00 | 0.00 | 0.00 | 59 | 1006.1 |
| 20260504043701 | 57 | 204 | 1.7 | 5.2 | 0.00 | 0.00 | 0.00 | 58 | 1006.0 |
| 20260504043158 | 57 | 208 | 1.7 | 2.6 | 0.00 | 0.00 | 0.00 | 58 | 1005.9 |
| 20260504042656 | 57 | 206 | 2.6 | 5.2 | 0.00 | 0.00 | 0.00 | 58 | 1005.9 |
| 20260504042152 | 58 | 212 | 0.0 | 2.6 | 0.00 | 0.00 | 0.00 | 59 | 1006.2 |
| 20260504041648 | 58 | 227 | 1.7 | 6.1 | 0.00 | 0.00 | 0.00 | 58 | 1006.0 |
| 20260504041144 | 58 | 219 | 2.6 | 3.5 | 0.00 | 0.00 | 0.00 | 57 | 1006.0 |
| 20260504040641 | 58 | 212 | 3.5 | 3.5 | 0.00 | 0.00 | 0.00 | 57 | 1005.9 |
| 20260504040138 | 58 | 215 | 3.5 | 3.5 | 0.00 | 0.00 | 0.00 | 57 | 1005.9 |
| 20260504035635 | 58 | 198 | 0.9 | 6.1 | 0.00 | 0.00 | 0.00 | 57 | 1006.0 |
| 20260504035132 | 59 | 216 | 3.5 | 5.2 | 0.00 | 0.00 | 0.00 | 57 | 1006.0 |
| 20260504034630 | 59 | 210 | 2.6 | 3.5 | 0.00 | 0.00 | 0.00 | 56 | 1005.8 |
| 20260504034126 | 59 | 200 | 1.7 | 3.5 | 0.00 | 0.00 | 0.00 | 56 | 1006.0 |
| 20260504033624 | 59 | 211 | 1.7 | 3.5 | 0.00 | 0.00 | 0.00 | 56 | 1006.1 |
| 20260504033121 | 59 | 214 | 5.2 | 6.1 | 0.00 | 0.00 | 0.00 | 56 | 1006.0 |
| 20260504032618 | 59 | 200 | 2.6 | 3.5 | 0.00 | 0.00 | 0.00 | 56 | 1006.1 |
| 20260504032115 | 59 | 199 | 2.6 | 3.5 | 0.00 | 0.00 | 0.00 | 55 | 1006.2 |
| 20260504031612 | 60 | 214 | 1.7 | 3.5 | 0.00 | 0.00 | 0.00 | 55 | 1006.1 |
| 20260504031108 | 60 | 200 | 0.9 | 5.2 | 0.00 | 0.00 | 0.00 | 54 | 1006.3 |
| 20260504030605 | 60 | 200 | 1.7 | 6.1 | 0.00 | 0.00 | 0.00 | 54 | 1006.5 |
| 20260504025559 | 60 | 206 | 2.6 | 3.5 | 0.00 | 0.00 | 0.00 | 53 | 1006.2 |
| 20260504025055 | 60 | 203 | 2.6 | 3.5 | 0.00 | 0.00 | 0.00 | 53 | 1006.5 |
| 20260504024553 | 60 | 206 | 1.7 | 5.2 | 0.00 | 0.00 | 0.00 | 53 | 1006.5 |
| 20260504024049 | 61 | 202 | 1.7 | 5.2 | 0.00 | 0.00 | 0.00 | 53 | 1006.6 |
| 20260504023546 | 61 | 224 | 4.3 | 5.2 | 0.00 | 0.00 | 0.00 | 52 | 1006.5 |
| 20260504023042 | 61 | 215 | 2.6 | 3.5 | 0.00 | 0.00 | 0.00 | 52 | 1006.5 |
| 20260504022538 | 61 | 207 | 2.6 | 5.2 | 0.00 | 0.00 | 0.00 | 51 | 1006.3 |
| 20260504022034 | 62 | 199 | 1.7 | 5.2 | 0.00 | 0.00 | 0.00 | 50 | 1006.2 |
| 20260504021532 | 62 | 198 | 1.7 | 3.5 | 0.00 | 0.00 | 0.00 | 50 | 1006.3 |
| 20260504021029 | 62 | 206 | 1.7 | 2.6 | 0.00 | 0.00 | 0.00 | 49 | 1006.3 |
| 20260504020525 | 62 | 205 | 0.9 | 1.7 | 0.00 | 0.00 | 0.00 | 49 | 1006.1 |
| 20260504020022 | 62 | 210 | 1.7 | 3.5 | 0.00 | 0.00 | 0.00 | 48 | 1006.1 |
| 20260504015518 | 62 | 213 | 1.7 | 2.6 | 0.00 | 0.00 | 0.00 | 48 | 1006.1 |
| 20260504015014 | 62 | 208 | 2.6 | 2.6 | 0.00 | 0.00 | 0.00 | 47 | 1006.0 |
| 20260504014510 | 62 | 211 | 0.9 | 2.6 | 0.00 | 0.00 | 0.00 | 47 | 1006.0 |
| 20260504014008 | 63 | 212 | 1.7 | 2.6 | 0.00 | 0.00 | 0.00 | 47 | 1006.2 |
| 20260504013506 | 63 | 214 | 2.6 | 3.5 | 0.00 | 0.00 | 0.00 | 46 | 1006.2 |
| 20260504013002 | 63 | 204 | 0.9 | 5.2 | 0.00 | 0.00 | 0.00 | 46 | 1006.0 |
| 20260504012500 | 64 | 221 | 2.6 | 3.5 | 0.00 | 0.00 | 0.00 | 45 | 1006.0 |
| 20260504011958 | 64 | 210 | 1.7 | 3.5 | 0.00 | 0.00 | 0.00 | 45 | 1005.7 |
| 20260504011454 | 64 | 205 | 0.9 | 2.6 | 0.00 | 0.00 | 0.00 | 44 | 1005.8 |
| 20260504010950 | 64 | 208 | 1.7 | 2.6 | 0.00 | 0.00 | 0.00 | 44 | 1005.8 |
| 20260504010446 | 65 | 208 | 1.7 | 2.6 | 0.00 | 0.00 | 0.00 | 44 | 1005.7 |
| 20260504005942 | 65 | 207 | 2.6 | 3.5 | 0.00 | 0.00 | 0.00 | 43 | 1005.6 |
| 20260504005439 | 65 | 210 | 0.9 | 3.5 | 0.00 | 0.00 | 0.00 | 42 | 1005.5 |
| 20260504004937 | 66 | 211 | 3.5 | 5.2 | 0.00 | 0.00 | 0.00 | 42 | 1005.5 |
| 20260504004434 | 66 | 207 | 2.6 | 3.5 | 0.00 | 0.00 | 0.00 | 42 | 1005.7 |
| 20260504003931 | 66 | 200 | 1.7 | 5.2 | 0.00 | 0.00 | 0.00 | 41 | 1005.6 |
| 20260504003427 | 66 | 194 | 1.7 | 3.5 | 0.00 | 0.00 | 0.00 | 42 | 1005.8 |
| 20260504002924 | 66 | 207 | 1.7 | 3.5 | 0.00 | 0.00 | 0.00 | 41 | 1005.7 |
| 20260504002421 | 67 | 210 | 1.7 | 3.5 | 0.00 | 0.00 | 0.00 | 41 | 1005.7 |
| 20260504001918 | 67 | 205 | 2.6 | 5.2 | 0.00 | 0.00 | 0.00 | 40 | 1005.7 |
| 20260504001416 | 67 | 203 | 2.6 | 7.8 | 0.00 | 0.00 | 0.00 | 40 | 1005.6 |
| 20260504000912 | 68 | 219 | 4.3 | 7.8 | 0.00 | 0.00 | 0.00 | 39 | 1005.7 |
| 20260504000409 | 68 | 214 | 5.2 | 6.1 | 0.00 | 0.00 | 0.00 | 39 | 1005.7 |
| 20260503235907 | 68 | 220 | 3.5 | 5.2 | 0.00 | 0.00 | 0.00 | 39 | 1005.8 |
| 20260503235405 | 68 | 222 | 5.2 | 11.3 | 0.00 | 0.00 | 0.00 | 38 | 1005.6 |
| 20260503234902 | 68 | 238 | 3.5 | 5.2 | 0.00 | 0.00 | 0.00 | 38 | 1005.5 |
| 20260503234359 | 68 | 199 | 4.3 | 7.8 | 0.00 | 0.00 | 0.00 | 37 | 1005.5 |
| 20260503233857 | 68 | 227 | 6.1 | 11.3 | 0.00 | 0.00 | 0.00 | 37 | 1005.9 |
| 20260503233353 | 68 | 206 | 1.7 | 5.2 | 0.00 | 0.00 | 0.00 | 39 | 1005.6 |
| 20260503232849 | 68 | 213 | 3.5 | 7.8 | 0.00 | 0.00 | 0.00 | 38 | 1005.8 |
| 20260503232347 | 68 | 188 | 5.2 | 6.1 | 0.00 | 0.00 | 0.00 | 37 | 1006.0 |
| 20260503231845 | 69 | 215 | 2.6 | 11.3 | 0.00 | 0.00 | 0.00 | 37 | 1005.9 |
| 20260503231341 | 69 | 219 | 3.5 | 10.4 | 0.00 | 0.00 | 0.00 | 38 | 1006.0 |
| 20260503230837 | 69 | 196 | 5.2 | 8.7 | 0.00 | 0.00 | 0.00 | 37 | 1006.0 |
| 20260503230334 | 68 | 163 | 5.2 | 8.7 | 0.00 | 0.00 | 0.00 | 37 | 1005.9 |
| 20260503225833 | 68 | 219 | 2.6 | 5.2 | 0.00 | 0.00 | 0.00 | 37 | 1006.1 |
| 20260503225328 | 68 | 205 | 3.5 | 8.7 | 0.00 | 0.00 | 0.00 | 36 | 1006.0 |
| 20260503224824 | 69 | 217 | 3.5 | 10.4 | 0.00 | 0.00 | 0.00 | 36 | 1006.1 |
| 20260503224322 | 69 | 208 | 2.6 | 10.4 | 0.00 | 0.00 | 0.00 | 37 | 1006.0 |
| 20260503223820 | 69 | 206 | 5.2 | 8.7 | 0.00 | 0.00 | 0.00 | 36 | 1006.3 |
| 20260503223317 | 69 | 182 | 5.2 | 6.1 | 0.00 | 0.00 | 0.00 | 36 | 1006.0 |
| 20260503222812 | 69 | 206 | 5.2 | 8.7 | 0.00 | 0.00 | 0.00 | 36 | 1006.0 |
| 20260503222311 | 69 | 219 | 7.8 | 13.0 | 0.00 | 0.00 | 0.00 | 35 | 1006.1 |
| 20260503221809 | 69 | 231 | 5.2 | 7.8 | 0.00 | 0.00 | 0.00 | 37 | 1006.0 |
| 20260503221307 | 69 | 219 | 8.7 | 13.9 | 0.00 | 0.00 | 0.00 | 36 | 1005.9 |
| 20260503220803 | 69 | 223 | 6.1 | 15.6 | 0.00 | 0.00 | 0.00 | 36 | 1006.0 |
| 20260503220300 | 68 | 202 | 4.3 | 8.7 | 0.00 | 0.00 | 0.00 | 37 | 1006.1 |
| 20260503215756 | 68 | 216 | 4.3 | 8.7 | 0.00 | 0.00 | 0.00 | 38 | 1006.2 |
| 20260503215253 | 68 | 234 | 7.0 | 10.4 | 0.00 | 0.00 | 0.00 | 38 | 1006.2 |
| 20260503214751 | 68 | 191 | 2.6 | 10.4 | 0.00 | 0.00 | 0.00 | 37 | 1006.0 |
| 20260503214248 | 68 | 198 | 1.7 | 6.1 | 0.00 | 0.00 | 0.00 | 38 | 1006.3 |
| 20260503213746 | 68 | 218 | 5.2 | 10.4 | 0.00 | 0.00 | 0.00 | 39 | 1006.3 |
| 20260503213243 | 68 | 184 | 6.1 | 10.4 | 0.00 | 0.00 | 0.00 | 38 | 1006.3 |
| 20260503212740 | 68 | 197 | 7.8 | 10.4 | 0.00 | 0.00 | 0.00 | 37 | 1006.7 |
| 20260503212238 | 68 | 148 | 2.6 | 13.0 | 0.00 | 0.00 | 0.00 | 37 | 1006.7 |
| 20260503211735 | 67 | 217 | 9.6 | 13.9 | 0.00 | 0.00 | 0.00 | 37 | 1006.7 |
| 20260503211231 | 66 | 222 | 4.3 | 6.1 | 0.00 | 0.00 | 0.00 | 39 | 1006.9 |
| 20260503210727 | 67 | 218 | 6.1 | 10.4 | 0.00 | 0.00 | 0.00 | 38 | 1007.0 |
| 20260503210224 | 68 | 189 | 4.3 | 11.3 | 0.00 | 0.00 | 0.00 | 37 | 1007.1 |
| 20260503205719 | 67 | 218 | 7.0 | 10.4 | 0.00 | 0.00 | 0.00 | 37 | 1007.2 |
| 20260503205216 | 66 | 210 | 5.2 | 11.3 | 0.00 | 0.00 | 0.00 | 38 | 1007.3 |
| 20260503204712 | 66 | 218 | 3.5 | 8.7 | 0.00 | 0.00 | 0.00 | 38 | 1007.4 |
| 20260503204211 | 67 | 211 | 4.3 | 7.8 | 0.00 | 0.00 | 0.00 | 37 | 1007.3 |
| 20260503203707 | 67 | 204 | 7.8 | 13.9 | 0.00 | 0.00 | 0.00 | 36 | 1007.5 |
| 20260503203205 | 67 | 153 | 4.3 | 16.5 | 0.00 | 0.00 | 0.00 | 36 | 1007.7 |
| 20260503202702 | 66 | 211 | 3.5 | 26.1 | 0.00 | 0.00 | 0.00 | 37 | 1007.7 |
| 20260503202200 | 67 | 202 | 10.4 | 13.9 | 0.00 | 0.00 | 0.00 | 36 | 1007.8 |
| 20260503201657 | 66 | 193 | 10.4 | 16.5 | 0.00 | 0.00 | 0.00 | 37 | 1008.1 |
| 20260503201155 | 65 | 206 | 4.3 | 15.6 | 0.00 | 0.00 | 0.00 | 38 | 1008.1 |
| 20260503200651 | 64 | 238 | 7.0 | 13.0 | 0.00 | 0.00 | 0.00 | 39 | 1008.1 |
| 20260503200147 | 64 | 181 | 5.2 | 13.0 | 0.00 | 0.00 | 0.00 | 38 | 1008.2 |
| 20260503195644 | 64 | 209 | 4.3 | 19.1 | 0.00 | 0.00 | 0.00 | 39 | 1008.4 |
| 20260503195141 | 64 | 202 | 6.1 | 18.2 | 0.00 | 0.00 | 0.00 | 40 | 1008.4 |
| 20260503194638 | 65 | 207 | 8.7 | 16.5 | 0.00 | 0.00 | 0.00 | 42 | 1008.4 |
| 20260503194133 | 63 | 225 | 5.2 | 13.0 | 0.00 | 0.00 | 0.00 | 43 | 1008.6 |
| 20260503193631 | 64 | 228 | 8.7 | 13.9 | 0.00 | 0.00 | 0.00 | 44 | 1009.0 |
| 20260503193126 | 63 | 184 | 5.2 | 8.7 | 0.00 | 0.00 | 0.00 | 44 | 1008.9 |
| 20260503192622 | 63 | 198 | 3.5 | 8.7 | 0.00 | 0.00 | 0.00 | 46 | 1008.9 |
| 20260503192118 | 62 | 228 | 6.1 | 15.6 | 0.00 | 0.00 | 0.00 | 46 | 1009.3 |
| 20260503191615 | 63 | 197 | 14.8 | 19.1 | 0.00 | 0.00 | 0.00 | 44 | 1009.3 |
| 20260503191111 | 62 | 223 | 4.3 | 8.7 | 0.00 | 0.00 | 0.00 | 46 | 1009.1 |
| 20260503190609 | 63 | 193 | 3.5 | 8.7 | 0.00 | 0.00 | 0.00 | 45 | 1009.3 |
| 20260503190106 | 63 | 187 | 6.1 | 13.9 | 0.00 | 0.00 | 0.00 | 45 | 1009.1 |
| 20260503185603 | 62 | 190 | 3.5 | 6.1 | 0.00 | 0.00 | 0.00 | 44 | 1009.1 |
| 20260503185102 | 62 | 176 | 3.5 | 11.3 | 0.00 | 0.00 | 0.00 | 45 | 1009.2 |
| 20260503184558 | 62 | 188 | 2.6 | 10.4 | 0.00 | 0.00 | 0.00 | 45 | 1009.1 |
| 20260503184055 | 62 | 224 | 5.2 | 11.3 | 0.00 | 0.00 | 0.00 | 45 | 1009.1 |
| 20260503183551 | 61 | 153 | 2.6 | 10.4 | 0.00 | 0.00 | 0.00 | 45 | 1008.9 |
| 20260503183049 | 62 | 188 | 4.3 | 7.8 | 0.00 | 0.00 | 0.00 | 42 | 1009.3 |
| 20260503182547 | 61 | 168 | 2.6 | 11.3 | 0.00 | 0.00 | 0.00 | 44 | 1009.5 |
| 20260503182045 | 61 | 170 | 2.6 | 13.9 | 0.00 | 0.00 | 0.00 | 44 | 1009.4 |
| 20260503181541 | 60 | 234 | 6.1 | 8.7 | 0.00 | 0.00 | 0.00 | 47 | 1009.5 |
| 20260503181037 | 60 | 217 | 5.2 | 8.7 | 0.00 | 0.00 | 0.00 | 46 | 1009.8 |
| 20260503180535 | 60 | 192 | 4.3 | 11.3 | 0.00 | 0.00 | 0.00 | 47 | 1009.8 |
| 20260503180032 | 60 | 175 | 3.5 | 6.1 | 0.00 | 0.00 | 0.00 | 46 | 1010.1 |
| 20260503175530 | 60 | 187 | 2.6 | 7.8 | 0.00 | 0.00 | 0.00 | 47 | 1010.1 |
| 20260503175027 | 60 | 39 | 0.0 | 10.4 | 0.00 | 0.00 | 0.00 | 49 | 1009.9 |
| 20260503174524 | 59 | 168 | 1.7 | 5.2 | 0.00 | 0.00 | 0.00 | 48 | 1010.5 |
| 20260503174020 | 60 | 198 | 3.5 | 6.1 | 0.00 | 0.00 | 0.00 | 51 | 1010.5 |
| 20260503173515 | 59 | 163 | 2.6 | 3.5 | 0.00 | 0.00 | 0.00 | 48 | 1010.4 |
| 20260503173012 | 59 | 194 | 5.2 | 6.1 | 0.00 | 0.00 | 0.00 | 48 | 1010.7 |
| 20260503172510 | 59 | 172 | 1.7 | 13.0 | 0.00 | 0.00 | 0.00 | 51 | 1010.7 |
| 20260503172006 | 59 | 202 | 6.1 | 8.7 | 0.00 | 0.00 | 0.00 | 50 | 1011.1 |
| 20260503171503 | 58 | 168 | 2.6 | 10.4 | 0.00 | 0.00 | 0.00 | 51 | 1011.0 |
| 20260503171000 | 57 | 205 | 0.9 | 8.7 | 0.00 | 0.00 | 0.00 | 55 | 1011.2 |
| 20260503170456 | 57 | 208 | 4.3 | 10.4 | 0.00 | 0.00 | 0.00 | 54 | 1011.5 |
| 20260503150849 | 53 | 241 | 8.7 | 11.3 | 0.00 | 0.00 | 0.00 | 56 | 1013.6 |
| 20260503150345 | 54 | 214 | 7.8 | 15.6 | 0.00 | 0.00 | 0.00 | 53 | 1013.6 |
| 20260503140309 | 52 | 226 | 3.5 | 8.7 | 0.00 | 0.00 | 0.00 | 55 | 1013.6 |
| 20260503131238 | 49 | 212 | 6.1 | 7.8 | 0.00 | 0.00 | 0.00 | 55 | 1014.1 |
| 20260503130736 | 49 | 208 | 1.7 | 6.1 | 0.00 | 0.00 | 0.00 | 57 | 1014.1 |
| 20260503130233 | 49 | 233 | 4.3 | 7.8 | 0.00 | 0.00 | 0.00 | 57 | 1014.1 |
| 20260503120159 | 48 | 195 | 3.5 | 7.8 | 0.00 | 0.00 | 0.00 | 56 | 1014.3 |
| 20260503110626 | 46 | 207 | 1.7 | 5.2 | 0.00 | 0.00 | 0.00 | 57 | 1013.7 |
| 20260503110124 | 46 | 211 | 2.6 | 5.2 | 0.00 | 0.00 | 0.00 | 57 | 1013.7 |